createdAt,value
2022-10-14T00:00:40.852Z,6.20
2022-10-14T00:03:08.763Z,6.37
2022-10-14T00:05:40.698Z,5.97
2022-10-14T00:08:09.810Z,6.27
2022-10-14T00:10:40.721Z,5.90
2022-10-14T00:13:08.631Z,4.87
2022-10-14T00:15:41.781Z,5.13
2022-10-14T00:18:09.750Z,4.20
2022-10-14T00:20:37.796Z,4.83
2022-10-14T00:23:05.761Z,4.50
2022-10-14T00:25:38.189Z,5.13
2022-10-14T00:28:06.504Z,5.00
2022-10-14T00:30:34.931Z,4.77
2022-10-14T00:33:04.270Z,5.50
2022-10-14T00:35:32.541Z,6.53
2022-10-14T00:38:00.537Z,6.37
2022-10-14T00:40:28.434Z,6.57
2022-10-14T00:42:56.312Z,7.73
2022-10-14T00:45:25.236Z,6.73
2022-10-14T00:47:53.724Z,8.73
2022-10-14T00:50:23.311Z,7.87
2022-10-14T00:52:51.211Z,7.63
2022-10-14T00:55:20.310Z,8.17
2022-10-14T00:57:48.248Z,8.83
2022-10-14T01:00:18.512Z,9.10
2022-10-14T01:02:47.324Z,8.67
2022-10-14T01:05:16.099Z,8.70
2022-10-14T01:08:00.856Z,8.77
2022-10-14T01:10:33.179Z,9.60
2022-10-14T01:13:09.484Z,10.97
2022-10-14T01:15:40.243Z,9.20
2022-10-14T01:18:14.036Z,9.67
2022-10-14T01:20:56.745Z,10.23
2022-10-14T01:23:39.583Z,8.93
2022-10-14T01:26:16.217Z,7.77
2022-10-14T01:28:49.369Z,6.67
2022-10-14T01:31:20.141Z,6.50
2022-10-14T01:33:49.284Z,5.47
2022-10-14T01:36:19.338Z,4.77
2022-10-14T01:38:50.352Z,4.40
2022-10-14T01:41:20.332Z,4.30
2022-10-14T01:43:49.977Z,4.43
2022-10-14T01:46:20.521Z,4.07
2022-10-14T01:48:50.524Z,4.23
2022-10-14T01:51:21.754Z,4.47
2022-10-14T01:53:52.415Z,4.30
2022-10-14T01:56:20.560Z,3.83
2022-10-14T01:58:48.740Z,4.00
2022-10-14T02:01:16.968Z,4.13
2022-10-14T02:03:47.021Z,4.00
2022-10-14T02:06:16.953Z,4.20
2022-10-14T02:08:53.035Z,4.23
2022-10-14T02:11:21.789Z,4.87
2022-10-14T02:13:58.750Z,4.17
2022-10-14T02:16:28.696Z,4.27
2022-10-14T02:19:01.551Z,4.97
2022-10-14T02:21:32.358Z,4.70
2022-10-14T02:24:03.206Z,5.27
2022-10-14T02:26:31.381Z,5.80
2022-10-14T02:28:59.604Z,6.07
2022-10-14T02:31:28.410Z,5.47
2022-10-14T02:33:58.403Z,6.30
2022-10-14T02:36:28.378Z,6.53
2022-10-14T02:38:58.108Z,6.90
2022-10-14T02:41:27.281Z,7.97
2022-10-14T02:43:55.204Z,7.73
2022-10-14T02:46:23.811Z,8.17
2022-10-14T02:48:51.909Z,8.57
2022-10-14T02:51:19.792Z,9.60
2022-10-14T02:53:49.172Z,9.00
2022-10-14T02:56:18.920Z,8.67
2022-10-14T02:58:46.824Z,9.43
2022-10-14T03:01:14.771Z,9.00
2022-10-14T03:03:42.633Z,9.10
2022-10-14T03:06:10.850Z,8.77
2022-10-14T03:08:38.797Z,10.83
2022-10-14T03:11:08.891Z,9.63
2022-10-14T03:13:36.790Z,9.43
2022-10-14T03:16:04.982Z,11.37
2022-10-14T03:18:32.866Z,10.80
2022-10-14T03:21:00.797Z,11.97
2022-10-14T03:23:28.724Z,12.00
2022-10-14T03:25:56.675Z,11.50
2022-10-14T03:28:26.471Z,11.40
2022-10-14T03:30:55.268Z,12.27
2022-10-14T03:33:26.315Z,11.47
2022-10-14T03:35:57.561Z,12.13
2022-10-14T03:38:25.956Z,12.10
2022-10-14T03:40:54.125Z,11.23
2022-10-14T03:43:22.336Z,11.20
2022-10-14T03:45:51.978Z,12.20
2022-10-14T03:48:19.862Z,12.23
2022-10-14T03:50:48.484Z,12.03
2022-10-14T03:53:16.568Z,12.90
2022-10-14T03:55:45.060Z,12.10
2022-10-14T03:58:13.734Z,11.80
2022-10-14T04:00:41.610Z,11.23
2022-10-14T04:03:10.937Z,11.27
2022-10-14T04:05:38.800Z,11.30
2022-10-14T04:08:06.827Z,9.80
2022-10-14T04:10:35.205Z,11.10
2022-10-14T04:13:03.108Z,9.53
2022-10-14T04:15:31.271Z,10.80
2022-10-14T04:17:59.198Z,9.40
2022-10-14T04:20:28.517Z,9.90
2022-10-14T04:22:56.472Z,8.87
2022-10-14T04:25:24.376Z,9.07
2022-10-14T04:27:52.261Z,9.17
2022-10-14T04:30:20.119Z,8.60
2022-10-14T04:32:48.132Z,9.23
2022-10-14T04:35:16.126Z,8.93
2022-10-14T04:37:45.811Z,8.90
2022-10-14T04:40:13.816Z,8.17
2022-10-14T04:42:41.721Z,9.00
2022-10-14T04:45:09.898Z,9.03
2022-10-14T04:47:37.806Z,8.83
2022-10-14T04:50:06.181Z,8.30
2022-10-14T04:52:34.072Z,7.90
2022-10-14T04:55:03.744Z,8.23
2022-10-14T04:57:31.620Z,8.17
2022-10-14T04:59:59.576Z,7.60
2022-10-14T05:02:27.463Z,7.40
2022-10-14T05:04:55.336Z,7.60
2022-10-14T05:07:23.348Z,8.77
2022-10-14T05:09:55.452Z,7.27
2022-10-14T05:12:25.817Z,7.73
2022-10-14T05:14:55.134Z,7.83
2022-10-14T05:17:23.232Z,7.33
2022-10-14T05:19:51.251Z,7.20
2022-10-14T05:22:19.288Z,8.43
2022-10-14T05:24:47.503Z,7.57
2022-10-14T05:27:15.369Z,8.17
2022-10-14T05:29:44.668Z,7.73
2022-10-14T05:32:12.683Z,7.33
2022-10-14T05:34:40.592Z,10.57
2022-10-14T05:37:08.595Z,7.73
2022-10-14T05:39:36.454Z,7.17
2022-10-14T05:42:04.407Z,6.87
2022-10-14T05:44:32.369Z,6.50
2022-10-14T05:47:01.658Z,7.60
2022-10-14T05:49:29.540Z,8.37
2022-10-14T05:51:57.451Z,6.87
2022-10-14T05:54:25.326Z,7.10
2022-10-14T05:56:53.247Z,7.50
2022-10-14T05:59:21.873Z,6.63
2022-10-14T06:01:49.751Z,7.47
2022-10-14T06:04:19.759Z,6.97
2022-10-14T06:06:47.775Z,7.40
2022-10-14T06:09:16.115Z,12.63
2022-10-14T06:11:44.037Z,7.80
2022-10-14T06:14:11.941Z,7.67
2022-10-14T06:16:39.942Z,7.00
2022-10-14T06:19:07.839Z,6.73
2022-10-14T06:21:37.116Z,6.90
2022-10-14T06:24:05.268Z,7.00
2022-10-14T06:26:33.154Z,6.73
2022-10-14T06:29:01.196Z,7.00
2022-10-14T06:31:32.348Z,6.20
2022-10-14T06:34:00.645Z,7.00
2022-10-14T06:36:28.552Z,6.60
2022-10-14T06:38:57.877Z,6.07
2022-10-14T06:41:26.110Z,6.40
2022-10-14T06:43:53.998Z,6.67
2022-10-14T06:46:21.903Z,7.07
2022-10-14T06:48:50.539Z,7.30
2022-10-14T06:51:18.626Z,6.87
2022-10-14T06:53:46.509Z,6.70
2022-10-14T06:56:15.865Z,6.60
2022-10-14T06:58:43.760Z,6.77
2022-10-14T07:01:11.858Z,6.40
2022-10-14T07:03:40.254Z,7.13
2022-10-14T07:06:08.887Z,6.70
2022-10-14T07:08:36.833Z,6.80
2022-10-14T07:11:05.065Z,6.17
2022-10-14T07:13:35.475Z,7.30
2022-10-14T07:16:03.566Z,6.83
2022-10-14T07:18:31.600Z,7.17
2022-10-14T07:21:02.674Z,6.93
2022-10-14T07:23:30.648Z,7.10
2022-10-14T07:25:58.934Z,7.27
2022-10-14T07:28:26.905Z,6.90
2022-10-14T07:30:59.904Z,7.10
2022-10-14T07:33:27.855Z,7.17
2022-10-14T07:35:55.962Z,6.90
2022-10-14T07:38:23.888Z,7.10
2022-10-14T07:40:59.047Z,7.43
2022-10-14T07:43:26.979Z,7.53
2022-10-14T07:46:00.531Z,8.13
2022-10-14T07:48:32.977Z,9.37
2022-10-14T07:51:12.816Z,7.43
2022-10-14T07:53:40.744Z,7.63
2022-10-14T07:56:08.734Z,7.20
2022-10-14T07:58:39.912Z,7.53
2022-10-14T08:01:10.199Z,7.77
2022-10-14T08:03:39.752Z,7.57
2022-10-14T08:06:07.958Z,8.03
2022-10-14T08:08:36.074Z,7.43
2022-10-14T08:11:04.825Z,7.17
2022-10-14T08:13:32.760Z,8.00
2022-10-14T08:16:00.753Z,7.90
2022-10-14T08:18:28.687Z,7.40
2022-10-14T08:20:58.035Z,8.10
2022-10-14T08:23:26.969Z,7.60
2022-10-14T08:25:54.991Z,8.27
2022-10-14T08:28:22.890Z,6.90
2022-10-14T08:30:50.806Z,7.50
2022-10-14T08:33:18.742Z,7.50
2022-10-14T08:35:50.233Z,7.33
2022-10-14T08:38:25.385Z,6.70
2022-10-14T08:40:57.768Z,7.07
2022-10-14T08:43:27.444Z,6.23
2022-10-14T08:45:57.052Z,7.07
2022-10-14T08:48:26.234Z,6.83
2022-10-14T08:50:55.839Z,6.47
2022-10-14T08:53:28.539Z,7.10
2022-10-14T08:56:00.332Z,6.53
2022-10-14T08:58:29.861Z,6.07
2022-10-14T09:00:58.273Z,6.57
2022-10-14T09:03:33.210Z,5.70
2022-10-14T09:06:03.111Z,5.80
2022-10-14T09:08:34.660Z,5.73
2022-10-14T09:11:02.943Z,6.10
2022-10-14T09:13:32.506Z,6.10
2022-10-14T09:16:03.388Z,5.53
2022-10-14T09:18:34.403Z,5.53
2022-10-14T09:21:03.454Z,4.90
2022-10-14T09:23:31.348Z,4.43
2022-10-14T09:26:02.948Z,4.33
2022-10-14T09:28:36.629Z,5.10
2022-10-14T09:31:05.207Z,5.07
2022-10-14T09:33:37.088Z,5.27
2022-10-14T09:36:08.415Z,5.37
2022-10-14T09:38:38.101Z,5.30
2022-10-14T09:41:10.897Z,5.00
2022-10-14T09:46:12.879Z,6.40
2022-10-14T09:48:43.988Z,6.10
2022-10-14T09:51:19.402Z,6.03
2022-10-14T09:53:49.237Z,5.90
2022-10-14T09:56:28.470Z,5.50
2022-10-14T09:58:57.555Z,5.83
2022-10-14T10:01:26.303Z,5.63
2022-10-14T10:03:54.953Z,5.80
2022-10-14T10:06:25.783Z,5.73
2022-10-14T10:08:57.479Z,5.67
2022-10-14T10:11:31.067Z,6.33
2022-10-14T10:13:59.007Z,5.73
2022-10-14T10:16:28.193Z,5.60
2022-10-14T10:18:57.383Z,5.73
2022-10-14T10:21:26.333Z,5.80
2022-10-14T10:23:55.886Z,5.40
2022-10-14T10:26:27.275Z,4.97
2022-10-14T10:28:58.331Z,5.50
2022-10-14T10:31:32.486Z,5.17
2022-10-14T10:34:05.042Z,5.37
2022-10-14T10:36:35.099Z,5.20
2022-10-14T10:39:05.133Z,5.47
2022-10-14T10:41:48.908Z,4.70
2022-10-14T10:44:25.841Z,5.20
2022-10-14T10:47:05.808Z,5.00
2022-10-14T10:49:44.812Z,5.00
2022-10-14T10:52:21.208Z,5.17
2022-10-14T10:54:54.615Z,4.70
2022-10-14T10:57:30.462Z,4.70
2022-10-14T11:00:02.794Z,4.83
2022-10-14T11:02:48.640Z,4.90
2022-10-14T11:05:19.515Z,4.80
2022-10-14T11:08:11.220Z,5.17
2022-10-14T11:11:02.387Z,4.67
2022-10-14T11:13:37.097Z,4.90
2022-10-14T11:16:08.575Z,4.80
2022-10-14T11:18:45.662Z,4.40
2022-10-14T11:21:20.311Z,4.90
2022-10-14T11:23:59.848Z,4.97
2022-10-14T11:26:37.730Z,4.77
2022-10-14T11:29:12.203Z,4.00
2022-10-14T11:31:47.246Z,4.50
2022-10-14T11:34:25.695Z,4.10
2022-10-14T11:37:00.304Z,4.63
2022-10-14T11:39:35.862Z,4.07
2022-10-14T11:42:14.993Z,4.43
2022-10-14T11:44:43.647Z,4.07
2022-10-14T11:47:20.610Z,4.30
2022-10-14T11:49:53.179Z,4.40
2022-10-14T11:52:23.665Z,4.20
2022-10-14T11:54:54.320Z,4.40
2022-10-14T11:57:26.481Z,4.40
2022-10-14T12:00:00.252Z,4.50
2022-10-14T12:02:34.935Z,4.77
2022-10-14T12:05:09.286Z,4.70
2022-10-14T12:07:41.341Z,4.67
2022-10-14T12:10:15.781Z,4.43
2022-10-14T12:12:44.703Z,6.00
2022-10-14T12:15:17.621Z,6.33
2022-10-14T12:17:49.322Z,6.67
2022-10-14T12:20:21.794Z,5.37
2022-10-14T12:22:50.336Z,5.30
2022-10-14T12:25:18.816Z,5.20
2022-10-14T12:27:46.951Z,4.53
2022-10-14T12:30:29.841Z,4.07
2022-10-14T12:33:02.828Z,4.07
2022-10-14T12:35:50.793Z,4.10
2022-10-14T12:38:19.305Z,4.23
2022-10-14T12:40:49.492Z,3.40
2022-10-14T12:43:21.160Z,3.40
2022-10-14T12:45:50.963Z,3.70
2022-10-14T12:48:22.658Z,4.00
2022-10-14T12:50:52.076Z,3.40
2022-10-14T12:53:24.615Z,4.17
2022-10-14T12:55:54.225Z,3.67
2022-10-14T12:58:27.720Z,4.90
2022-10-14T13:00:56.804Z,4.37
2022-10-14T13:03:28.203Z,3.67
2022-10-14T13:06:18.998Z,3.03
2022-10-14T13:09:18.175Z,3.60
2022-10-14T13:11:46.654Z,3.50
2022-10-14T13:14:23.173Z,3.40
2022-10-14T13:17:00.500Z,3.73
2022-10-14T13:19:45.978Z,3.13
2022-10-14T13:22:31.518Z,3.03
2022-10-14T13:25:08.026Z,3.30
2022-10-14T13:27:40.839Z,3.57
2022-10-14T13:30:13.740Z,3.37
2022-10-14T13:32:43.721Z,3.20
2022-10-14T13:35:17.705Z,3.23
2022-10-14T13:37:47.172Z,3.40
2022-10-14T13:40:21.449Z,2.80
2022-10-14T13:42:51.679Z,3.57
2022-10-14T13:45:22.176Z,2.73
2022-10-14T13:47:50.172Z,2.83
2022-10-14T13:50:20.499Z,2.83
2022-10-14T13:52:51.448Z,2.83
2022-10-14T13:55:22.243Z,3.00
2022-10-14T13:58:12.457Z,2.90
2022-10-14T14:00:42.906Z,2.70
2022-10-14T14:03:18.902Z,3.00
2022-10-14T14:05:48.722Z,2.90
2022-10-14T14:08:38.775Z,2.53
2022-10-14T14:11:23.126Z,2.73
2022-10-14T14:14:00.733Z,2.50
2022-10-14T14:16:31.122Z,2.67
2022-10-14T14:19:14.596Z,2.60
2022-10-14T14:21:43.961Z,2.30
2022-10-14T14:24:19.989Z,1.90
2022-10-14T14:26:47.944Z,2.10
2022-10-14T14:29:17.494Z,2.20
2022-10-14T14:34:35.992Z,2.60
2022-10-14T14:39:57.180Z,1.97
2022-10-14T14:42:25.818Z,1.83
2022-10-14T14:44:56.111Z,2.20
2022-10-14T14:47:24.625Z,2.30
2022-10-14T14:50:01.638Z,2.30
2022-10-14T14:52:41.770Z,1.83
2022-10-14T14:55:24.581Z,2.20
2022-10-14T14:57:57.130Z,1.87
2022-10-14T15:00:25.160Z,2.10
2022-10-14T15:02:58.709Z,2.43
2022-10-14T15:05:26.611Z,2.30
2022-10-14T15:07:56.290Z,2.20
2022-10-14T15:10:25.884Z,2.50
2022-10-14T15:12:54.457Z,2.80
2022-10-14T15:15:26.881Z,2.80
2022-10-14T15:18:06.879Z,2.67
2022-10-14T15:20:36.371Z,3.00
2022-10-14T15:23:25.643Z,3.70
2022-10-14T15:25:58.117Z,3.27
2022-10-14T15:28:29.946Z,3.17
2022-10-14T15:31:03.008Z,3.70
2022-10-14T15:33:33.629Z,3.37
2022-10-14T15:36:02.964Z,2.67
2022-10-14T15:41:05.611Z,3.60
2022-10-14T15:43:34.876Z,3.40
2022-10-14T15:46:20.376Z,3.07
2022-10-14T15:48:50.397Z,3.30
2022-10-14T15:51:19.727Z,3.00
2022-10-14T15:53:49.229Z,3.23
2022-10-14T15:56:17.398Z,2.87
2022-10-14T15:58:45.280Z,3.40
2022-10-14T16:01:17.153Z,3.87
2022-10-14T16:03:45.072Z,3.13
2022-10-14T16:06:15.607Z,3.00
2022-10-14T16:08:43.693Z,3.53
2022-10-14T16:11:18.283Z,3.17
2022-10-14T16:13:46.204Z,4.03
2022-10-14T16:16:14.310Z,3.00
2022-10-14T16:18:42.180Z,2.93
2022-10-14T16:21:11.507Z,3.53
2022-10-14T16:23:39.411Z,3.10
2022-10-14T16:26:07.640Z,4.23
2022-10-14T16:28:37.017Z,3.60
2022-10-14T16:31:04.991Z,4.00
2022-10-14T16:33:32.931Z,4.70
2022-10-14T16:36:02.252Z,4.43
2022-10-14T16:38:30.165Z,4.20
2022-10-14T16:40:58.629Z,4.03
2022-10-14T16:43:26.883Z,3.97
2022-10-14T16:45:58.750Z,4.60
2022-10-14T16:48:26.954Z,4.30
2022-10-14T16:50:55.597Z,4.73
2022-10-14T16:53:42.180Z,4.37
2022-10-14T16:56:26.251Z,3.90
2022-10-14T16:58:54.169Z,4.00
2022-10-14T17:01:23.498Z,3.47
2022-10-14T17:03:51.576Z,2.80
2022-10-14T17:06:23.903Z,2.80
2022-10-14T17:08:52.469Z,3.20
2022-10-14T17:11:20.685Z,3.13
2022-10-14T17:13:48.575Z,3.07
2022-10-14T17:16:16.478Z,3.30
2022-10-14T17:18:46.086Z,3.13
2022-10-14T17:21:14.035Z,2.70
2022-10-14T17:23:43.418Z,2.93
2022-10-14T17:26:13.099Z,3.33
2022-10-14T17:28:41.678Z,3.10
2022-10-14T17:31:10.864Z,3.53
2022-10-14T17:33:38.897Z,3.53
2022-10-14T17:36:08.871Z,3.43
2022-10-14T17:38:37.160Z,3.20
2022-10-14T17:41:05.425Z,3.80
2022-10-14T17:43:33.454Z,3.30
2022-10-14T17:46:04.884Z,3.07
2022-10-14T17:48:32.909Z,3.80
2022-10-14T17:51:01.766Z,3.47
2022-10-14T17:53:31.296Z,4.00
2022-10-14T17:56:04.420Z,4.07
2022-10-14T17:58:32.357Z,3.57
2022-10-14T18:01:06.780Z,2.93
2022-10-14T18:03:34.836Z,3.40
2022-10-14T18:06:09.731Z,2.43
2022-10-14T18:08:40.507Z,2.73
2022-10-14T18:11:10.959Z,2.83
2022-10-14T18:16:09.556Z,3.33
2022-10-14T18:18:38.089Z,3.50
2022-10-14T18:21:06.341Z,3.50
2022-10-14T18:23:34.663Z,3.00
2022-10-14T18:26:10.922Z,3.20
2022-10-14T18:28:42.313Z,3.10
2022-10-14T18:31:12.633Z,3.70
2022-10-14T18:33:40.865Z,3.73
2022-10-14T18:36:09.638Z,3.03
2022-10-14T18:38:37.943Z,3.30
2022-10-14T18:41:08.339Z,3.00
2022-10-14T18:43:36.283Z,2.70
2022-10-14T18:46:05.304Z,3.13
2022-10-14T18:48:33.302Z,2.43
2022-10-14T18:51:01.611Z,2.40
2022-10-14T18:53:31.255Z,2.60
2022-10-14T18:56:01.592Z,2.93
2022-10-14T18:58:31.249Z,3.17
2022-10-14T19:00:59.313Z,3.23
2022-10-14T19:03:28.211Z,2.87
2022-10-14T19:06:01.169Z,3.30
2022-10-14T19:08:30.528Z,3.13
2022-10-14T19:11:02.713Z,2.90
2022-10-14T19:13:35.996Z,3.00
2022-10-14T19:16:04.731Z,2.87
2022-10-14T19:18:32.724Z,2.70
2022-10-14T19:21:10.066Z,2.63
2022-10-14T19:23:38.829Z,2.57
2022-10-14T19:26:07.805Z,2.40
2022-10-14T19:28:37.692Z,2.60
2022-10-14T19:31:06.743Z,2.47
2022-10-14T19:33:36.244Z,2.10
2022-10-14T19:36:04.250Z,2.30
2022-10-14T19:38:32.223Z,1.63
2022-10-14T19:41:00.196Z,1.80
2022-10-14T19:43:28.361Z,1.80
2022-10-14T19:45:58.846Z,1.97
2022-10-14T19:48:27.043Z,1.70
2022-10-14T19:50:55.059Z,2.17
2022-10-14T19:53:22.964Z,1.87
2022-10-14T19:55:51.097Z,1.67
2022-10-14T19:58:19.007Z,1.60
2022-10-14T20:00:46.934Z,1.70
2022-10-14T20:03:16.227Z,1.83
2022-10-14T20:05:44.196Z,1.80
2022-10-14T20:08:12.125Z,1.80
2022-10-14T20:10:40.184Z,2.00
2022-10-14T20:13:08.066Z,1.63
2022-10-14T20:15:35.935Z,1.67
2022-10-14T20:18:03.843Z,1.67
2022-10-14T20:20:33.530Z,1.30
2022-10-14T20:23:01.435Z,1.60
2022-10-14T20:25:30.744Z,1.70
2022-10-14T20:27:58.662Z,1.50
2022-10-14T20:30:26.571Z,1.70
2022-10-14T20:32:54.452Z,1.63
2022-10-14T20:35:22.805Z,1.90
2022-10-14T20:37:52.114Z,2.03
2022-10-14T20:40:19.975Z,1.67
2022-10-14T20:42:47.935Z,1.73
2022-10-14T20:45:15.879Z,1.83
2022-10-14T20:47:43.789Z,1.97
2022-10-14T20:50:11.978Z,1.70
2022-10-14T20:52:39.861Z,2.33
2022-10-14T20:55:09.451Z,1.70
2022-10-14T20:57:37.470Z,2.00
2022-10-14T21:00:05.576Z,1.70
2022-10-14T21:02:33.732Z,1.80
2022-10-14T21:05:01.606Z,1.73
2022-10-14T21:07:29.486Z,2.00
2022-10-14T21:09:57.410Z,2.00
2022-10-14T21:12:26.775Z,1.70
2022-10-14T21:14:54.748Z,1.67
2022-10-14T21:17:22.625Z,2.07
2022-10-14T21:19:50.519Z,1.53
2022-10-14T21:22:18.530Z,1.70
2022-10-14T21:24:46.423Z,1.73
2022-10-14T21:27:14.314Z,2.20
2022-10-14T21:29:43.693Z,2.10
2022-10-14T21:32:11.599Z,2.00
2022-10-14T21:34:39.529Z,1.90
2022-10-14T21:37:07.407Z,2.80
2022-10-14T21:39:35.330Z,1.87
2022-10-14T21:42:03.267Z,2.20
2022-10-14T21:44:31.235Z,1.97
2022-10-14T21:47:00.591Z,2.10
2022-10-14T21:49:28.471Z,2.03
2022-10-14T21:51:56.378Z,1.80
2022-10-14T21:54:24.916Z,1.60
2022-10-14T21:56:52.838Z,2.10
2022-10-14T21:59:20.847Z,1.80
2022-10-14T22:01:48.767Z,1.70
2022-10-14T22:04:18.109Z,1.60
2022-10-14T22:06:46.139Z,1.40
2022-10-14T22:09:14.015Z,1.83
2022-10-14T22:11:42.398Z,2.63
2022-10-14T22:14:12.508Z,1.60
2022-10-14T22:16:40.397Z,1.80
2022-10-14T22:19:08.552Z,1.87
2022-10-14T22:21:38.266Z,1.70
2022-10-14T22:26:40.565Z,1.90
2022-10-14T22:29:10.528Z,2.00
2022-10-14T22:31:38.732Z,2.00
2022-10-14T22:34:07.647Z,2.20
2022-10-14T22:36:36.122Z,2.23
2022-10-14T22:39:06.623Z,2.60
2022-10-14T22:41:35.877Z,2.23
2022-10-14T22:44:04.554Z,2.40
2022-10-14T22:46:33.300Z,1.77
2022-10-14T22:49:02.126Z,2.13
2022-10-14T22:51:30.654Z,1.90
2022-10-14T22:53:58.599Z,2.60
2022-10-14T22:56:28.805Z,2.20
2022-10-14T22:58:57.254Z,2.00
2022-10-14T23:01:27.904Z,2.40
2022-10-14T23:03:56.246Z,2.43
2022-10-14T23:06:24.121Z,1.90
2022-10-14T23:08:52.008Z,1.80
2022-10-14T23:11:20.645Z,2.20
2022-10-14T23:13:50.156Z,2.17
2022-10-14T23:16:19.170Z,2.10
2022-10-14T23:18:47.370Z,2.50
2022-10-14T23:21:16.617Z,2.33
2022-10-14T23:23:44.802Z,2.40
2022-10-14T23:26:13.504Z,2.03
2022-10-14T23:28:41.979Z,2.17
2022-10-14T23:31:12.813Z,2.00
2022-10-14T23:33:40.917Z,2.07
2022-10-14T23:36:10.027Z,2.13
2022-10-14T23:38:38.225Z,2.00
2022-10-14T23:41:06.700Z,1.80
2022-10-14T23:43:34.851Z,2.07
2022-10-14T23:46:02.779Z,2.40
2022-10-14T23:48:32.062Z,2.07
2022-10-14T23:51:00.013Z,2.13
2022-10-14T23:53:28.208Z,2.40
2022-10-14T23:55:56.195Z,1.97
2022-10-14T23:58:24.547Z,2.00
